createdAt,value
2023-01-28T00:01:08.572Z,70.93
2023-01-28T00:03:37.105Z,65.45
2023-01-28T00:06:08.373Z,68.85
2023-01-28T00:08:36.961Z,73.03
2023-01-28T00:11:07.291Z,69.20
2023-01-28T00:13:35.245Z,72.32
2023-01-28T00:16:09.157Z,69.15
2023-01-28T00:18:37.867Z,62.75
2023-01-28T00:21:08.551Z,73.85
2023-01-28T00:23:38.356Z,62.33
2023-01-28T00:26:13.731Z,72.32
2023-01-28T00:28:44.621Z,62.42
2023-01-28T00:31:19.434Z,67.93
2023-01-28T00:33:49.883Z,68.28
2023-01-28T00:36:19.975Z,70.70
2023-01-28T00:38:55.418Z,73.15
2023-01-28T00:41:26.744Z,74.18
2023-01-28T00:43:56.102Z,70.10
2023-01-28T00:46:26.791Z,69.43
2023-01-28T00:48:55.111Z,67.68
2023-01-28T00:51:23.348Z,70.82
2023-01-28T00:53:54.273Z,78.70
2023-01-28T00:56:22.809Z,69.78
2023-01-28T00:58:50.648Z,69.38
2023-01-28T01:01:25.634Z,75.40
2023-01-28T01:04:03.237Z,70.75
2023-01-28T01:06:35.915Z,73.68
2023-01-28T01:09:08.440Z,71.90
2023-01-28T01:11:38.236Z,74.57
2023-01-28T01:14:07.433Z,69.47
2023-01-28T01:16:36.706Z,60.58
2023-01-28T01:19:05.000Z,70.40
2023-01-28T01:21:33.293Z,65.28
2023-01-28T01:24:02.640Z,69.80
2023-01-28T01:26:31.315Z,59.38
2023-01-28T01:29:02.287Z,62.85
2023-01-28T01:31:30.547Z,64.03
2023-01-28T01:34:01.629Z,57.92
2023-01-28T01:36:32.242Z,66.97
2023-01-28T01:39:00.207Z,69.47
2023-01-28T01:41:31.531Z,68.88
2023-01-28T01:44:01.954Z,73.88
2023-01-28T01:46:34.008Z,64.50
2023-01-28T01:49:21.871Z,63.90
2023-01-28T01:51:57.315Z,57.65
2023-01-28T01:54:29.246Z,64.60
2023-01-28T01:57:00.011Z,57.22
2023-01-28T01:59:32.450Z,48.85
2023-01-28T02:02:05.222Z,53.38
2023-01-28T02:04:39.235Z,53.45
2023-01-28T02:07:15.025Z,49.25
2023-01-28T02:09:43.320Z,51.67
2023-01-28T02:12:23.228Z,51.38
2023-01-28T02:14:56.980Z,53.63
2023-01-28T02:17:26.248Z,52.20
2023-01-28T02:20:01.211Z,54.92
2023-01-28T02:22:38.871Z,53.85
2023-01-28T02:25:39.645Z,56.57
2023-01-28T02:28:12.103Z,51.97
2023-01-28T02:30:45.792Z,50.05
2023-01-28T02:33:27.662Z,50.83
2023-01-28T02:35:56.918Z,52.50
2023-01-28T02:38:48.158Z,47.65
2023-01-28T02:41:25.815Z,47.55
2023-01-28T02:43:55.131Z,44.38
2023-01-28T02:46:46.334Z,50.05
2023-01-28T02:49:18.703Z,41.70
2023-01-28T02:52:11.755Z,44.80
2023-01-28T02:55:01.283Z,51.92
2023-01-28T02:58:04.139Z,47.67
2023-01-28T03:01:02.728Z,41.53
2023-01-28T03:03:42.036Z,45.95
2023-01-28T03:06:27.610Z,44.10
2023-01-28T03:09:20.313Z,40.97
2023-01-28T03:12:20.718Z,47.42
2023-01-28T03:15:11.985Z,51.90
2023-01-28T03:18:01.665Z,50.80
2023-01-28T03:20:59.584Z,49.60
2023-01-28T03:23:56.744Z,49.70
2023-01-28T03:26:45.675Z,47.20
2023-01-28T03:29:33.312Z,48.33
2023-01-28T03:32:25.871Z,48.20
2023-01-28T03:35:13.294Z,52.78
2023-01-28T03:37:42.106Z,52.15
2023-01-28T03:40:19.217Z,49.85
2023-01-28T03:42:49.808Z,48.80
2023-01-28T03:45:36.223Z,51.28
2023-01-28T03:48:06.402Z,49.28
2023-01-28T03:50:35.181Z,51.92
2023-01-28T03:53:16.823Z,49.47
2023-01-28T03:55:55.202Z,47.97
2023-01-28T03:58:27.478Z,54.72
2023-01-28T04:00:56.111Z,51.38
2023-01-28T04:03:24.058Z,50.30
2023-01-28T04:06:03.381Z,45.80
2023-01-28T04:08:54.879Z,50.38
2023-01-28T04:11:41.644Z,45.67
2023-01-28T04:14:11.860Z,51.47
2023-01-28T04:17:03.605Z,52.60
2023-01-28T04:19:37.560Z,51.38
2023-01-28T04:22:12.408Z,56.60
2023-01-28T04:24:42.728Z,54.13
2023-01-28T04:27:12.968Z,51.90
2023-01-28T04:29:43.217Z,55.67
2023-01-28T04:32:40.659Z,51.05
2023-01-28T04:35:26.222Z,50.47
2023-01-28T04:38:04.743Z,54.35
2023-01-28T04:43:20.692Z,47.90
2023-01-28T04:45:55.711Z,55.03
2023-01-28T04:48:41.520Z,53.72
2023-01-28T04:51:33.881Z,47.80
2023-01-28T04:54:28.802Z,45.47
2023-01-28T04:57:00.099Z,50.55
2023-01-28T04:59:28.805Z,45.38
2023-01-28T05:01:57.140Z,49.15
2023-01-28T05:04:25.955Z,45.33
2023-01-28T05:06:53.884Z,47.40
2023-01-28T05:09:27.452Z,51.15
2023-01-28T05:11:55.408Z,45.97
2023-01-28T05:14:24.544Z,45.30
2023-01-28T05:17:01.576Z,45.97
2023-01-28T05:19:29.897Z,45.45
2023-01-28T05:21:58.387Z,46.40
2023-01-28T05:24:33.840Z,49.00
2023-01-28T05:27:02.375Z,46.47
2023-01-28T05:29:31.343Z,47.90
2023-01-28T05:32:00.605Z,43.80
2023-01-28T05:34:28.760Z,45.13
2023-01-28T05:36:58.614Z,47.25
2023-01-28T05:39:33.349Z,52.53
2023-01-28T05:42:01.265Z,51.65
2023-01-28T05:44:30.770Z,46.17
2023-01-28T05:47:29.998Z,48.78
2023-01-28T05:50:08.985Z,50.38
2023-01-28T05:52:44.340Z,48.83
2023-01-28T05:55:24.511Z,51.75
2023-01-28T05:57:52.597Z,47.35
2023-01-28T06:00:25.511Z,58.35
2023-01-28T06:02:53.820Z,52.38
2023-01-28T06:05:22.589Z,53.03
2023-01-28T06:07:50.890Z,48.13
2023-01-28T06:10:20.581Z,53.90
2023-01-28T06:12:48.880Z,48.47
2023-01-28T06:18:17.034Z,52.60
2023-01-28T06:20:46.411Z,57.03
2023-01-28T06:23:14.442Z,58.78
2023-01-28T06:25:43.143Z,54.40
2023-01-28T06:28:13.681Z,57.15
2023-01-28T06:30:42.498Z,51.13
2023-01-28T06:33:10.338Z,57.08
2023-01-28T06:35:38.670Z,58.00
2023-01-28T06:38:06.475Z,58.38
2023-01-28T06:40:34.835Z,57.83
2023-01-28T06:43:02.889Z,58.33
2023-01-28T06:45:32.974Z,59.28
2023-01-28T06:48:01.211Z,62.03
2023-01-28T06:50:35.216Z,64.22
2023-01-28T06:53:03.665Z,59.22
2023-01-28T06:55:31.806Z,58.17
2023-01-28T06:58:00.237Z,53.83
2023-01-28T07:00:30.122Z,61.25
2023-01-28T07:02:58.570Z,54.88
2023-01-28T07:05:27.198Z,60.78
2023-01-28T07:07:55.448Z,56.70
2023-01-28T07:10:25.396Z,56.25
2023-01-28T07:12:54.293Z,53.92
2023-01-28T07:15:22.583Z,57.67
2023-01-28T07:17:50.637Z,59.55
2023-01-28T07:20:19.747Z,61.00
2023-01-28T07:22:48.741Z,58.97
2023-01-28T07:25:17.060Z,60.17
2023-01-28T07:27:53.003Z,71.15
2023-01-28T07:30:22.397Z,68.18
2023-01-28T07:33:00.687Z,64.68
2023-01-28T07:35:30.051Z,66.70
2023-01-28T07:38:00.119Z,66.85
2023-01-28T07:40:29.496Z,75.00
2023-01-28T07:42:57.523Z,68.63
2023-01-28T07:45:30.893Z,66.28
2023-01-28T07:48:03.609Z,66.32
2023-01-28T07:50:34.770Z,76.68
2023-01-28T07:53:09.137Z,82.95
2023-01-28T07:55:42.466Z,82.75
2023-01-28T07:58:12.896Z,83.47
2023-01-28T08:00:41.684Z,77.35
2023-01-28T08:03:16.085Z,80.50
2023-01-28T08:05:54.393Z,86.50
2023-01-28T08:08:27.597Z,91.35
2023-01-28T08:10:55.964Z,96.82
2023-01-28T08:13:23.846Z,88.75
2023-01-28T08:15:55.800Z,79.90
2023-01-28T08:18:23.905Z,86.97
2023-01-28T08:20:58.842Z,91.78
2023-01-28T08:23:27.990Z,87.55
2023-01-28T08:25:59.368Z,84.78
2023-01-28T08:28:28.463Z,90.05
2023-01-28T08:30:59.860Z,91.15
2023-01-28T08:33:28.030Z,87.53
2023-01-28T08:35:56.220Z,90.35
2023-01-28T08:38:24.311Z,94.60
2023-01-28T08:40:55.815Z,101.32
2023-01-28T08:43:24.252Z,88.82
2023-01-28T08:45:52.566Z,98.95
2023-01-28T08:48:22.118Z,91.43
2023-01-28T08:50:51.182Z,93.38
2023-01-28T08:53:21.188Z,93.60
2023-01-28T08:55:51.718Z,93.93
2023-01-28T08:58:19.736Z,87.45
2023-01-28T09:00:51.083Z,95.03
2023-01-28T09:03:19.808Z,80.95
2023-01-28T09:05:50.572Z,88.90
2023-01-28T09:08:18.741Z,91.82
2023-01-28T09:10:47.316Z,78.57
2023-01-28T09:13:16.490Z,87.25
2023-01-28T09:15:44.874Z,86.60
2023-01-28T09:18:13.051Z,82.05
2023-01-28T09:20:41.532Z,82.15
2023-01-28T09:23:09.971Z,76.13
2023-01-28T09:25:38.191Z,85.80
2023-01-28T09:28:06.630Z,80.22
2023-01-28T09:30:37.515Z,86.13
2023-01-28T09:33:07.556Z,86.57
2023-01-28T09:35:37.215Z,90.50
2023-01-28T09:38:05.651Z,86.40
2023-01-28T09:40:42.325Z,82.50
2023-01-28T09:43:33.117Z,91.43
2023-01-28T09:46:05.138Z,84.82
2023-01-28T09:48:43.632Z,88.20
2023-01-28T09:51:40.346Z,86.97
2023-01-28T09:54:15.745Z,87.68
2023-01-28T09:56:47.706Z,92.70
2023-01-28T09:59:23.576Z,87.00
2023-01-28T10:02:00.431Z,96.95
2023-01-28T10:04:59.019Z,98.30
2023-01-28T10:07:44.087Z,92.80
2023-01-28T10:10:21.265Z,89.10
2023-01-28T10:13:06.762Z,89.80
2023-01-28T10:15:55.371Z,99.38
2023-01-28T10:18:39.229Z,95.30
2023-01-28T10:21:16.587Z,96.75
2023-01-28T10:24:09.549Z,95.32
2023-01-28T10:26:41.974Z,100.03
2023-01-28T10:29:25.251Z,100.82
2023-01-28T10:32:16.071Z,96.40
2023-01-28T10:34:44.658Z,97.53
2023-01-28T10:37:15.401Z,91.50
2023-01-28T10:39:45.302Z,97.43
2023-01-28T10:42:33.566Z,100.13
2023-01-28T10:45:15.187Z,93.28
2023-01-28T10:47:47.207Z,100.47
2023-01-28T10:50:22.646Z,101.60
2023-01-28T10:52:58.654Z,95.97
2023-01-28T10:55:32.533Z,106.00
2023-01-28T10:58:06.736Z,96.85
2023-01-28T11:00:38.932Z,98.97
2023-01-28T11:03:19.459Z,99.05
2023-01-28T11:05:55.938Z,95.95
2023-01-28T11:08:29.011Z,96.70
2023-01-28T11:11:00.253Z,104.68
2023-01-28T11:13:31.779Z,100.25
2023-01-28T11:16:04.686Z,97.57
2023-01-28T11:18:50.493Z,102.57
2023-01-28T11:21:30.593Z,100.07
2023-01-28T11:24:14.857Z,87.70
2023-01-28T11:26:49.932Z,103.47
2023-01-28T11:29:33.217Z,92.38
2023-01-28T11:32:02.009Z,93.40
2023-01-28T11:34:34.615Z,87.70
2023-01-28T11:37:16.808Z,81.90
2023-01-28T11:39:45.631Z,88.07
2023-01-28T11:42:22.665Z,89.80
2023-01-28T11:44:50.909Z,89.93
2023-01-28T11:47:59.140Z,88.10
2023-01-28T11:51:06.397Z,97.32
2023-01-28T11:53:43.116Z,86.97
2023-01-28T11:56:43.470Z,86.28
2023-01-28T11:59:34.266Z,94.90
2023-01-28T12:02:17.245Z,94.07
2023-01-28T12:04:59.953Z,92.05
2023-01-28T12:07:49.408Z,89.93
2023-01-28T12:10:35.727Z,96.50
2023-01-28T12:13:21.963Z,93.43
2023-01-28T12:15:52.965Z,102.15
2023-01-28T12:19:23.245Z,96.05
2023-01-28T12:22:14.270Z,97.72
2023-01-28T12:25:11.026Z,88.70
2023-01-28T12:27:59.785Z,87.63
2023-01-28T12:30:42.125Z,98.45
2023-01-28T12:33:58.047Z,95.75
2023-01-28T12:36:35.894Z,98.93
2023-01-28T12:39:22.206Z,99.93
2023-01-28T12:42:23.942Z,87.60
2023-01-28T12:45:00.997Z,88.60
2023-01-28T12:47:37.976Z,96.57
2023-01-28T12:50:21.783Z,98.72
2023-01-28T12:52:58.747Z,99.95
2023-01-28T12:55:27.010Z,98.72
2023-01-28T12:57:59.375Z,96.63
2023-01-28T13:00:45.903Z,99.35
2023-01-28T13:03:42.360Z,101.00
2023-01-28T13:06:20.319Z,104.33
2023-01-28T13:08:49.964Z,104.22
2023-01-28T13:11:20.289Z,120.20
2023-01-28T13:13:48.628Z,95.25
2023-01-28T13:16:19.386Z,109.70
2023-01-28T13:18:49.610Z,95.78
2023-01-28T13:21:25.637Z,94.22
2023-01-28T13:24:23.460Z,108.30
2023-01-28T13:26:55.333Z,95.47
2023-01-28T13:29:26.417Z,98.30
2023-01-28T13:32:03.154Z,107.75
2023-01-28T13:34:44.581Z,100.00
2023-01-28T13:37:33.403Z,102.20
2023-01-28T13:40:08.578Z,114.15
2023-01-28T13:42:37.262Z,108.18
2023-01-28T13:45:23.155Z,107.63
2023-01-28T13:47:58.902Z,106.35
2023-01-28T13:50:38.407Z,112.53
2023-01-28T13:53:22.366Z,100.65
2023-01-28T13:55:54.577Z,103.88
2023-01-28T13:58:51.192Z,100.22
2023-01-28T14:01:44.314Z,103.07
2023-01-28T14:04:15.889Z,105.00
2023-01-28T14:07:05.169Z,100.35
2023-01-28T14:09:42.677Z,95.88
2023-01-28T14:12:13.417Z,92.05
2023-01-28T14:15:07.267Z,93.95
2023-01-28T14:17:50.101Z,97.72
2023-01-28T14:20:44.730Z,100.28
2023-01-28T14:23:22.487Z,91.60
2023-01-28T14:26:03.862Z,93.05
2023-01-28T14:29:09.179Z,89.68
2023-01-28T14:31:39.858Z,96.38
2023-01-28T14:34:26.327Z,93.80
2023-01-28T14:36:59.965Z,90.63
2023-01-28T14:39:31.600Z,89.10
2023-01-28T14:42:03.067Z,97.78
2023-01-28T14:44:35.476Z,93.30
2023-01-28T14:47:48.028Z,96.65
2023-01-28T14:50:46.529Z,94.25
2023-01-28T14:53:17.870Z,100.80
2023-01-28T14:55:59.671Z,91.65
2023-01-28T14:58:55.344Z,99.40
2023-01-28T15:01:26.086Z,95.75
2023-01-28T15:03:55.201Z,91.45
2023-01-28T15:06:26.187Z,98.13
2023-01-28T15:09:06.056Z,103.85
2023-01-28T15:11:37.947Z,99.22
2023-01-28T15:14:16.964Z,87.65
2023-01-28T15:16:50.474Z,94.88
2023-01-28T15:19:28.401Z,93.35
2023-01-28T15:22:00.313Z,92.03
2023-01-28T15:24:32.504Z,92.28
2023-01-28T15:27:01.984Z,92.50
2023-01-28T15:29:34.285Z,102.70
2023-01-28T15:32:04.798Z,94.03
2023-01-28T15:34:34.119Z,89.85
2023-01-28T15:37:02.409Z,97.57
2023-01-28T15:39:31.031Z,91.03
2023-01-28T15:42:05.126Z,93.68
2023-01-28T15:44:37.557Z,86.57
2023-01-28T15:47:23.952Z,87.97
2023-01-28T15:49:55.833Z,100.00
2023-01-28T15:52:37.278Z,91.55
2023-01-28T15:55:07.236Z,101.72
2023-01-28T15:57:36.020Z,96.97
2023-01-28T16:00:12.275Z,95.60
2023-01-28T16:02:45.920Z,93.50
2023-01-28T16:05:54.086Z,91.30
2023-01-28T16:08:37.666Z,95.53
2023-01-28T16:11:09.960Z,95.28
2023-01-28T16:13:44.964Z,93.38
2023-01-28T16:16:15.444Z,104.10
2023-01-28T16:18:55.626Z,95.78
2023-01-28T16:21:32.391Z,93.57
2023-01-28T16:24:21.215Z,101.57
2023-01-28T16:27:07.340Z,101.68
2023-01-28T16:29:36.008Z,98.53
2023-01-28T16:32:04.395Z,103.80
2023-01-28T16:34:32.418Z,108.90
2023-01-28T16:37:02.002Z,91.53
2023-01-28T16:39:31.232Z,103.80
2023-01-28T16:41:59.969Z,101.53
2023-01-28T16:44:29.676Z,108.43
2023-01-28T16:46:59.088Z,119.13
2023-01-28T16:49:28.493Z,111.47
2023-01-28T16:51:56.764Z,111.05
2023-01-28T16:54:25.933Z,101.82
2023-01-28T16:56:56.639Z,108.97
2023-01-28T16:59:26.051Z,104.78
2023-01-28T17:01:54.357Z,106.50
2023-01-28T17:04:22.260Z,105.20
2023-01-28T17:06:51.643Z,110.10
2023-01-28T17:09:21.015Z,99.38
2023-01-28T17:11:49.357Z,90.53
2023-01-28T17:14:17.730Z,101.15
2023-01-28T17:16:45.840Z,97.07
2023-01-28T17:19:13.882Z,94.07
2023-01-28T17:21:42.516Z,99.68
2023-01-28T17:24:11.365Z,105.47
2023-01-28T17:26:39.806Z,108.68
2023-01-28T17:29:08.956Z,106.15
2023-01-28T17:31:38.858Z,108.85
2023-01-28T17:34:08.457Z,115.95
2023-01-28T17:36:37.451Z,118.70
2023-01-28T17:39:07.768Z,119.45
2023-01-28T17:41:38.310Z,121.05
2023-01-28T17:44:06.431Z,118.35
2023-01-28T17:46:35.112Z,119.00
2023-01-28T17:49:04.219Z,129.60
2023-01-28T17:51:32.771Z,123.88
2023-01-28T17:54:00.804Z,121.90
2023-01-28T17:56:30.970Z,116.47
2023-01-28T17:59:04.936Z,116.95
2023-01-28T18:01:38.609Z,116.65
2023-01-28T18:04:07.445Z,111.32
2023-01-28T18:06:36.372Z,113.30
2023-01-28T18:09:05.357Z,99.75
2023-01-28T18:11:33.596Z,105.50
2023-01-28T18:14:01.976Z,120.80
2023-01-28T18:16:30.568Z,111.35
2023-01-28T18:18:58.691Z,107.13
2023-01-28T18:21:52.068Z,125.55
2023-01-28T18:24:26.672Z,124.47
2023-01-28T18:27:01.393Z,106.03
2023-01-28T18:29:31.198Z,107.30
2023-01-28T18:32:00.582Z,103.68
2023-01-28T18:34:31.841Z,102.90
2023-01-28T18:37:04.329Z,108.68
2023-01-28T18:39:35.149Z,93.50
2023-01-28T18:42:03.397Z,107.05
2023-01-28T18:44:32.281Z,116.63
2023-01-28T18:47:01.114Z,99.65
2023-01-28T18:49:30.127Z,113.93
2023-01-28T18:51:59.051Z,106.43
2023-01-28T18:54:27.226Z,104.68
2023-01-28T18:56:55.510Z,107.22
2023-01-28T18:59:23.731Z,112.50
2023-01-28T19:01:53.120Z,109.00
2023-01-28T19:04:21.557Z,116.13
2023-01-28T19:06:50.009Z,118.68
2023-01-28T19:09:18.460Z,122.15
2023-01-28T19:11:51.905Z,109.40
2023-01-28T19:14:19.944Z,108.93
2023-01-28T19:16:49.984Z,109.50
2023-01-28T19:19:18.980Z,112.32
2023-01-28T19:21:47.127Z,140.57
2023-01-28T19:24:16.158Z,129.10
2023-01-28T19:26:45.211Z,135.23
2023-01-28T19:29:16.392Z,128.68
2023-01-28T19:31:49.226Z,116.70
2023-01-28T19:34:17.412Z,118.65
2023-01-28T19:36:47.165Z,115.38
2023-01-28T19:39:17.446Z,119.22
2023-01-28T19:41:47.073Z,116.70
2023-01-28T19:44:14.904Z,121.53
2023-01-28T19:46:46.267Z,121.45
2023-01-28T19:49:14.514Z,126.70
2023-01-28T19:51:42.806Z,124.10
2023-01-28T19:54:10.825Z,130.10
2023-01-28T19:56:41.796Z,120.20
2023-01-28T19:59:09.643Z,116.90
2023-01-28T20:01:38.430Z,122.45
2023-01-28T20:04:08.097Z,114.53
2023-01-28T20:06:40.191Z,114.80
2023-01-28T20:09:15.734Z,115.10
2023-01-28T20:11:44.494Z,125.57
2023-01-28T20:14:13.136Z,117.88
2023-01-28T20:16:42.782Z,123.78
2023-01-28T20:19:16.415Z,104.75
2023-01-28T20:21:45.522Z,118.32
2023-01-28T20:24:15.937Z,107.95
2023-01-28T20:26:45.337Z,112.30
2023-01-28T20:29:20.947Z,101.95
2023-01-28T20:32:01.260Z,107.90
2023-01-28T20:34:38.264Z,103.25
2023-01-28T20:37:10.409Z,104.70
2023-01-28T20:39:39.549Z,109.22
2023-01-28T20:42:10.411Z,99.50
2023-01-28T20:44:41.231Z,95.60
2023-01-28T20:47:09.770Z,89.90
2023-01-28T20:49:37.545Z,95.00
2023-01-28T20:52:06.182Z,83.63
2023-01-28T20:54:34.294Z,89.57
2023-01-28T20:57:03.021Z,90.13
2023-01-28T20:59:35.258Z,94.43
2023-01-28T21:02:03.571Z,102.88
2023-01-28T21:04:33.666Z,93.22
2023-01-28T21:07:02.061Z,98.43
2023-01-28T21:09:31.036Z,86.55
2023-01-28T21:12:00.561Z,90.40
2023-01-28T21:14:29.777Z,95.60
2023-01-28T21:16:59.232Z,106.60
2023-01-28T21:19:29.872Z,96.55
2023-01-28T21:21:58.210Z,97.55
2023-01-28T21:24:29.843Z,107.63
2023-01-28T21:26:58.963Z,103.30
2023-01-28T21:29:27.862Z,92.28
2023-01-28T21:31:56.416Z,92.25
2023-01-28T21:34:25.153Z,95.20
2023-01-28T21:36:53.833Z,91.88
2023-01-28T21:39:23.313Z,101.95
2023-01-28T21:41:51.794Z,95.55
2023-01-28T21:44:19.994Z,91.63
2023-01-28T21:46:48.341Z,84.78
2023-01-28T21:49:16.126Z,89.30
2023-01-28T21:51:47.507Z,91.78
2023-01-28T21:54:17.709Z,101.63
2023-01-28T21:56:47.911Z,90.15
2023-01-28T21:59:29.334Z,85.63
2023-01-28T22:02:24.231Z,82.78
2023-01-28T22:04:53.789Z,79.65
2023-01-28T22:07:22.317Z,80.07
2023-01-28T22:09:50.735Z,78.03
2023-01-28T22:12:19.563Z,87.25
2023-01-28T22:14:48.981Z,79.63
2023-01-28T22:17:20.426Z,73.03
2023-01-28T22:19:51.356Z,84.13
2023-01-28T22:22:21.017Z,84.28
2023-01-28T22:24:49.968Z,75.10
2023-01-28T22:27:18.624Z,74.78
2023-01-28T22:29:47.318Z,74.25
2023-01-28T22:32:15.559Z,74.93
2023-01-28T22:34:46.679Z,69.93
2023-01-28T22:37:15.490Z,69.97
2023-01-28T22:39:43.352Z,72.45
2023-01-28T22:42:11.979Z,73.22
2023-01-28T22:44:41.003Z,72.07
2023-01-28T22:47:09.403Z,66.00
2023-01-28T22:49:37.201Z,74.65
2023-01-28T22:52:07.508Z,70.28
2023-01-28T22:54:35.419Z,75.22
2023-01-28T22:57:03.851Z,84.65
2023-01-28T22:59:32.535Z,74.32
2023-01-28T23:02:00.779Z,70.18
2023-01-28T23:04:32.385Z,62.75
2023-01-28T23:07:00.857Z,61.30
2023-01-28T23:09:29.192Z,56.92
2023-01-28T23:11:57.513Z,73.57
2023-01-28T23:14:44.035Z,72.93
2023-01-28T23:17:30.522Z,69.20
2023-01-28T23:20:16.996Z,69.97
2023-01-28T23:23:04.493Z,61.42
2023-01-28T23:28:01.435Z,67.78
2023-01-28T23:30:29.351Z,66.25
2023-01-28T23:32:58.677Z,69.72
2023-01-28T23:35:26.680Z,67.20
2023-01-28T23:37:55.916Z,66.25
2023-01-28T23:40:24.911Z,67.45
2023-01-28T23:42:54.940Z,68.95
2023-01-28T23:45:23.177Z,61.92
2023-01-28T23:47:52.731Z,67.10
2023-01-28T23:50:20.519Z,68.55
2023-01-28T23:52:49.384Z,75.90
2023-01-28T23:55:17.792Z,70.53
2023-01-28T23:57:47.257Z,68.53
